createdAt,value
2022-11-29T00:02:26.377Z,8.52
2022-11-29T00:04:55.660Z,8.57
2022-11-29T00:07:26.420Z,8.67
2022-11-29T00:09:55.694Z,8.82
2022-11-29T00:12:24.952Z,9.30
2022-11-29T00:14:54.204Z,8.85
2022-11-29T00:17:23.544Z,9.70
2022-11-29T00:19:52.752Z,9.00
2022-11-29T00:22:23.817Z,9.05
2022-11-29T00:24:54.764Z,9.13
2022-11-29T00:27:24.062Z,9.95
2022-11-29T00:29:53.418Z,8.85
2022-11-29T00:32:22.765Z,10.03
2022-11-29T00:34:51.995Z,9.82
2022-11-29T00:37:21.249Z,8.88
2022-11-29T00:39:50.496Z,9.52
2022-11-29T00:42:21.335Z,9.98
2022-11-29T00:44:50.773Z,8.40
2022-11-29T00:47:20.044Z,9.30
2022-11-29T00:49:50.020Z,8.70
2022-11-29T00:52:19.282Z,9.10
2022-11-29T00:54:49.078Z,9.13
2022-11-29T00:57:18.543Z,8.80
2022-11-29T00:59:49.345Z,9.45
2022-11-29T01:02:18.783Z,10.13
2022-11-29T01:04:48.129Z,9.73
2022-11-29T01:07:17.428Z,9.13
2022-11-29T01:09:46.723Z,8.93
2022-11-29T01:12:15.973Z,9.15
2022-11-29T01:14:45.532Z,10.18
2022-11-29T01:17:16.554Z,10.13
2022-11-29T01:19:50.634Z,9.90
2022-11-29T01:22:20.344Z,10.23
2022-11-29T01:24:49.825Z,8.68
2022-11-29T01:27:19.114Z,9.45
2022-11-29T01:29:48.347Z,8.60
2022-11-29T01:32:19.103Z,8.85
2022-11-29T01:34:48.396Z,8.63
2022-11-29T01:37:17.745Z,8.82
2022-11-29T01:39:47.225Z,8.63
2022-11-29T01:42:16.775Z,9.32
2022-11-29T01:45:20.505Z,9.18
2022-11-29T01:47:54.214Z,8.17
2022-11-29T01:50:23.737Z,9.85
2022-11-29T01:52:53.572Z,8.40
2022-11-29T01:55:23.264Z,9.23
2022-11-29T01:57:53.413Z,9.63
2022-11-29T02:00:23.079Z,8.70
2022-11-29T02:02:58.600Z,8.27
2022-11-29T02:05:28.382Z,9.70
2022-11-29T02:08:00.610Z,8.45
2022-11-29T02:10:43.997Z,8.20
2022-11-29T02:13:22.979Z,8.27
2022-11-29T02:15:59.555Z,8.35
2022-11-29T02:18:42.452Z,8.63
2022-11-29T02:21:31.867Z,8.57
2022-11-29T02:24:40.645Z,9.15
2022-11-29T02:27:28.314Z,8.73
2022-11-29T02:30:30.945Z,9.35
2022-11-29T02:33:35.974Z,9.18
2022-11-29T02:36:36.175Z,9.07
2022-11-29T02:39:23.682Z,8.52
2022-11-29T02:42:12.295Z,9.30
2022-11-29T02:45:02.911Z,7.90
2022-11-29T02:47:44.716Z,8.63
2022-11-29T02:50:21.474Z,8.68
2022-11-29T02:53:01.806Z,8.77
2022-11-29T02:55:39.649Z,9.00
2022-11-29T02:58:18.316Z,8.10
2022-11-29T03:00:59.511Z,9.05
2022-11-29T03:03:37.065Z,9.18
2022-11-29T03:06:18.244Z,9.40
2022-11-29T03:08:54.534Z,8.80
2022-11-29T03:11:31.065Z,9.23
2022-11-29T03:14:14.477Z,9.68
2022-11-29T03:16:48.616Z,8.45
2022-11-29T03:19:30.938Z,8.65
2022-11-29T03:22:12.333Z,7.80
2022-11-29T03:24:48.592Z,7.97
2022-11-29T03:27:23.223Z,8.93
2022-11-29T03:29:58.025Z,8.35
2022-11-29T03:32:35.001Z,9.02
2022-11-29T03:35:09.506Z,9.83
2022-11-29T03:37:49.482Z,8.57
2022-11-29T03:40:22.654Z,8.43
2022-11-29T03:42:58.169Z,9.13
2022-11-29T03:45:34.794Z,9.32
2022-11-29T03:48:09.397Z,8.67
2022-11-29T03:50:43.253Z,9.60
2022-11-29T03:53:21.679Z,9.32
2022-11-29T03:55:55.463Z,9.73
2022-11-29T03:58:40.707Z,8.85
2022-11-29T04:01:44.995Z,9.47
2022-11-29T04:04:47.938Z,9.40
2022-11-29T04:07:34.858Z,9.60
2022-11-29T04:10:18.194Z,9.27
2022-11-29T04:13:24.822Z,8.63
2022-11-29T04:16:27.823Z,8.83
2022-11-29T04:19:33.112Z,8.50
2022-11-29T04:22:29.871Z,8.45
2022-11-29T04:25:28.564Z,8.07
2022-11-29T04:28:40.757Z,8.98
2022-11-29T04:31:24.198Z,8.20
2022-11-29T04:34:17.105Z,8.75
2022-11-29T04:37:16.502Z,9.32
2022-11-29T04:40:27.775Z,9.05
2022-11-29T04:43:22.426Z,9.10
2022-11-29T04:46:25.039Z,8.80
2022-11-29T04:49:26.129Z,9.77
2022-11-29T04:52:11.192Z,8.55
2022-11-29T04:54:47.416Z,8.98
2022-11-29T04:57:30.151Z,8.02
2022-11-29T05:00:08.608Z,7.57
2022-11-29T05:02:49.796Z,8.07
2022-11-29T05:05:31.365Z,8.68
2022-11-29T05:08:17.805Z,8.55
2022-11-29T05:10:56.862Z,8.95
2022-11-29T05:13:36.255Z,8.27
2022-11-29T05:16:25.963Z,8.05
2022-11-29T05:19:12.184Z,7.78
2022-11-29T05:21:50.974Z,7.60
2022-11-29T05:24:32.503Z,8.27
2022-11-29T05:27:10.286Z,8.33
2022-11-29T05:29:47.726Z,8.32
2022-11-29T05:32:28.730Z,7.97
2022-11-29T05:35:15.241Z,7.68
2022-11-29T05:37:50.584Z,7.90
2022-11-29T05:40:42.239Z,9.00
2022-11-29T05:43:31.111Z,7.85
2022-11-29T05:46:09.747Z,6.95
2022-11-29T05:48:47.984Z,8.07
2022-11-29T05:51:22.968Z,7.97
2022-11-29T05:54:02.316Z,7.87
2022-11-29T05:56:42.002Z,7.78
2022-11-29T05:59:17.165Z,8.32
2022-11-29T06:01:57.533Z,8.63
2022-11-29T06:04:34.754Z,7.75
2022-11-29T06:07:13.114Z,7.50
2022-11-29T06:09:48.446Z,8.63
2022-11-29T06:12:22.057Z,8.25
2022-11-29T06:15:15.494Z,8.23
2022-11-29T06:18:03.040Z,7.50
2022-11-29T06:20:45.077Z,7.07
2022-11-29T06:23:31.665Z,7.43
2022-11-29T06:26:13.845Z,8.10
2022-11-29T06:28:55.361Z,8.18
2022-11-29T06:31:29.848Z,7.80
2022-11-29T06:34:08.059Z,7.63
2022-11-29T06:36:43.653Z,8.10
2022-11-29T06:39:13.628Z,7.72
2022-11-29T06:41:42.949Z,8.65
2022-11-29T06:44:12.910Z,9.27
2022-11-29T06:46:47.148Z,8.57
2022-11-29T06:49:24.594Z,10.00
2022-11-29T06:52:08.453Z,10.65
2022-11-29T06:54:50.473Z,10.48
2022-11-29T06:57:25.523Z,10.80
2022-11-29T07:00:05.023Z,10.80
2022-11-29T07:02:53.591Z,11.27
2022-11-29T07:05:29.047Z,11.00
2022-11-29T07:08:01.883Z,11.63
2022-11-29T07:10:36.192Z,11.35
2022-11-29T07:13:06.401Z,11.67
2022-11-29T07:15:38.284Z,12.18
2022-11-29T07:18:20.015Z,11.65
2022-11-29T07:21:02.344Z,12.63
2022-11-29T07:23:36.873Z,11.75
2022-11-29T07:26:18.293Z,12.83
2022-11-29T07:29:01.369Z,12.23
2022-11-29T07:31:41.625Z,11.30
2022-11-29T07:34:19.435Z,12.32
2022-11-29T07:36:59.246Z,12.20
2022-11-29T07:39:41.286Z,11.77
2022-11-29T07:42:21.155Z,10.65
2022-11-29T07:45:00.197Z,11.20
2022-11-29T07:47:34.229Z,11.55
2022-11-29T07:50:05.265Z,10.93
2022-11-29T07:52:36.144Z,12.10
2022-11-29T07:55:06.262Z,12.23
2022-11-29T07:57:37.175Z,11.70
2022-11-29T08:00:07.908Z,12.10
2022-11-29T08:02:41.504Z,11.48
2022-11-29T08:05:12.095Z,11.20
2022-11-29T08:07:43.327Z,10.95
2022-11-29T08:10:15.654Z,12.43
2022-11-29T08:12:46.482Z,12.27
2022-11-29T08:15:16.221Z,13.23
2022-11-29T08:17:45.553Z,13.03
2022-11-29T08:20:16.789Z,11.68
2022-11-29T08:22:54.445Z,11.57
2022-11-29T08:25:24.215Z,10.35
2022-11-29T08:27:54.787Z,10.40
2022-11-29T08:30:25.016Z,10.00
2022-11-29T08:32:54.568Z,10.15
2022-11-29T08:35:24.948Z,8.93
2022-11-29T08:37:56.168Z,9.70
2022-11-29T08:40:25.636Z,9.20
2022-11-29T08:42:59.003Z,10.20
2022-11-29T08:45:28.463Z,9.52
2022-11-29T08:47:57.761Z,9.05
2022-11-29T08:50:27.240Z,9.20
2022-11-29T08:53:17.448Z,9.20
2022-11-29T08:55:47.127Z,8.20
2022-11-29T08:58:17.155Z,7.80
2022-11-29T09:00:47.384Z,8.35
2022-11-29T09:03:34.068Z,9.60
2022-11-29T09:06:12.180Z,8.73
2022-11-29T09:08:44.266Z,9.17
2022-11-29T09:11:15.448Z,9.40
2022-11-29T09:13:46.674Z,9.07
2022-11-29T09:16:19.204Z,9.10
2022-11-29T09:18:51.801Z,8.45
2022-11-29T09:21:21.677Z,7.93
2022-11-29T09:23:58.942Z,9.45
2022-11-29T09:26:31.386Z,8.68
2022-11-29T09:29:01.846Z,11.40
2022-11-29T09:31:32.452Z,11.00
2022-11-29T09:34:02.072Z,11.70
2022-11-29T09:36:32.653Z,11.82
2022-11-29T09:39:04.076Z,12.88
2022-11-29T09:41:50.265Z,13.10
2022-11-29T09:44:28.919Z,13.20
2022-11-29T09:47:05.622Z,11.13
2022-11-29T09:49:52.152Z,11.10
2022-11-29T09:52:32.884Z,11.70
2022-11-29T09:55:15.274Z,11.60
2022-11-29T09:57:45.676Z,10.35
2022-11-29T10:00:18.266Z,10.77
2022-11-29T10:02:52.037Z,10.65
2022-11-29T10:05:27.129Z,10.82
2022-11-29T10:08:02.043Z,10.05
2022-11-29T10:10:41.036Z,10.23
2022-11-29T10:13:20.392Z,10.10
2022-11-29T10:15:54.594Z,11.30
2022-11-29T10:18:27.472Z,11.05
2022-11-29T10:21:01.422Z,11.68
2022-11-29T10:23:37.621Z,11.95
2022-11-29T10:26:08.931Z,10.77
2022-11-29T10:28:38.905Z,11.25
2022-11-29T10:31:19.424Z,12.05
2022-11-29T10:33:50.095Z,12.13
2022-11-29T10:36:28.017Z,9.93
2022-11-29T10:39:00.896Z,11.00
2022-11-29T10:41:31.788Z,11.45
2022-11-29T10:44:02.456Z,11.13
2022-11-29T10:46:34.951Z,9.77
2022-11-29T10:49:07.534Z,10.90
2022-11-29T10:51:36.883Z,10.13
2022-11-29T10:54:19.712Z,11.48
2022-11-29T10:56:50.505Z,10.85
2022-11-29T10:59:25.513Z,9.60
2022-11-29T11:01:55.812Z,10.48
2022-11-29T11:04:30.794Z,10.27
2022-11-29T11:07:02.524Z,10.02
2022-11-29T11:09:36.777Z,10.02
2022-11-29T11:12:18.288Z,9.25
2022-11-29T11:14:48.258Z,9.55
2022-11-29T11:17:26.195Z,10.83
2022-11-29T11:19:58.414Z,9.55
2022-11-29T11:22:29.083Z,10.25
2022-11-29T11:25:01.353Z,10.63
2022-11-29T11:27:35.141Z,10.60
2022-11-29T11:30:06.406Z,10.00
2022-11-29T11:32:35.820Z,10.98
2022-11-29T11:35:23.755Z,10.38
2022-11-29T11:37:58.287Z,10.77
2022-11-29T11:40:29.856Z,11.57
2022-11-29T11:43:03.624Z,12.10
2022-11-29T11:45:35.587Z,11.13
2022-11-29T11:48:12.914Z,11.45
2022-11-29T11:50:45.732Z,12.75
2022-11-29T11:53:22.705Z,11.80
2022-11-29T11:55:59.156Z,11.27
2022-11-29T11:58:31.687Z,11.10
2022-11-29T12:01:14.829Z,11.55
2022-11-29T12:03:54.054Z,11.90
2022-11-29T12:06:33.413Z,12.15
2022-11-29T12:09:11.237Z,11.13
2022-11-29T12:11:45.975Z,12.23
2022-11-29T12:14:25.571Z,12.63
2022-11-29T12:17:06.766Z,12.52
2022-11-29T12:19:43.724Z,12.52
2022-11-29T12:22:20.496Z,12.27
2022-11-29T12:24:57.191Z,12.63
2022-11-29T12:27:26.450Z,12.13
2022-11-29T12:29:58.106Z,12.95
2022-11-29T12:32:42.658Z,12.65
2022-11-29T12:35:39.009Z,11.90
2022-11-29T12:38:19.960Z,12.77
2022-11-29T12:41:00.076Z,13.32
2022-11-29T12:43:37.255Z,14.20
2022-11-29T12:46:13.750Z,12.55
2022-11-29T12:48:54.106Z,13.27
2022-11-29T12:51:35.601Z,12.10
2022-11-29T12:54:41.912Z,14.50
2022-11-29T12:57:18.917Z,12.73
2022-11-29T13:00:06.281Z,12.40
2022-11-29T13:02:57.463Z,11.67
2022-11-29T13:05:40.805Z,12.55
2022-11-29T13:08:22.753Z,12.73
2022-11-29T13:11:09.586Z,12.65
2022-11-29T13:13:42.216Z,12.13
2022-11-29T13:16:31.124Z,12.33
2022-11-29T13:19:10.740Z,13.63
2022-11-29T13:21:45.547Z,12.30
2022-11-29T13:24:24.820Z,13.00
2022-11-29T13:26:56.835Z,12.60
2022-11-29T13:29:27.645Z,11.77
2022-11-29T13:31:57.508Z,13.27
2022-11-29T13:34:33.677Z,12.05
2022-11-29T13:37:09.317Z,11.60
2022-11-29T13:39:52.193Z,12.48
2022-11-29T13:42:27.527Z,11.67
2022-11-29T13:45:04.456Z,11.38
2022-11-29T13:47:33.765Z,11.65
2022-11-29T13:50:08.352Z,11.63
2022-11-29T13:52:42.909Z,10.75
2022-11-29T13:55:31.345Z,10.83
2022-11-29T13:58:16.760Z,11.27
2022-11-29T14:00:52.428Z,11.07
2022-11-29T14:03:38.709Z,11.05
2022-11-29T14:06:21.305Z,11.80
2022-11-29T14:09:26.607Z,11.37
2022-11-29T14:12:03.488Z,12.15
2022-11-29T14:14:42.435Z,10.77
2022-11-29T14:17:34.686Z,12.23
2022-11-29T14:20:51.446Z,11.05
2022-11-29T14:23:48.996Z,10.67
2022-11-29T14:26:28.866Z,11.02
2022-11-29T14:29:00.110Z,11.68
2022-11-29T14:31:55.485Z,12.27
2022-11-29T14:34:43.917Z,13.50
2022-11-29T14:37:32.165Z,12.13
2022-11-29T14:40:12.936Z,11.45
2022-11-29T14:42:49.252Z,12.07
2022-11-29T14:45:24.699Z,11.45
2022-11-29T14:47:54.015Z,12.30
2022-11-29T14:50:36.180Z,11.10
2022-11-29T14:53:06.866Z,11.05
2022-11-29T14:55:39.133Z,9.95
2022-11-29T14:58:23.328Z,10.15
2022-11-29T15:01:09.972Z,9.55
2022-11-29T15:03:48.059Z,10.37
2022-11-29T15:06:25.661Z,9.82
2022-11-29T15:09:02.358Z,8.50
2022-11-29T15:11:50.516Z,9.63
2022-11-29T15:14:30.996Z,10.35
2022-11-29T15:17:14.536Z,9.83
2022-11-29T15:20:29.752Z,8.35
2022-11-29T15:23:01.600Z,7.88
2022-11-29T15:25:32.989Z,9.27
2022-11-29T15:28:06.005Z,8.68
2022-11-29T15:30:36.826Z,10.23
2022-11-29T15:33:08.231Z,10.18
2022-11-29T15:35:38.399Z,9.57
2022-11-29T15:38:07.818Z,9.27
2022-11-29T15:40:39.246Z,9.65
2022-11-29T15:43:18.493Z,10.83
2022-11-29T15:45:49.574Z,10.07
2022-11-29T15:48:21.975Z,9.90
2022-11-29T15:51:17.800Z,11.27
2022-11-29T15:54:00.383Z,11.43
2022-11-29T15:56:46.266Z,11.20
2022-11-29T15:59:21.666Z,11.52
2022-11-29T16:01:54.000Z,11.63
2022-11-29T16:04:24.684Z,11.18
2022-11-29T16:06:56.665Z,11.20
2022-11-29T16:09:31.705Z,11.83
2022-11-29T16:12:03.122Z,11.85
2022-11-29T16:14:34.024Z,10.68
2022-11-29T16:17:05.513Z,10.88
2022-11-29T16:19:37.159Z,11.15
2022-11-29T16:22:16.553Z,12.93
2022-11-29T16:24:52.987Z,11.13
2022-11-29T16:27:24.156Z,11.98
2022-11-29T16:29:56.375Z,11.88
2022-11-29T16:32:29.082Z,12.38
2022-11-29T16:35:06.515Z,12.40
2022-11-29T16:37:40.910Z,12.27
2022-11-29T16:40:22.576Z,13.32
2022-11-29T16:43:12.644Z,12.52
2022-11-29T16:45:43.977Z,12.70
2022-11-29T16:48:30.985Z,12.23
2022-11-29T16:51:20.581Z,11.50
2022-11-29T16:53:51.715Z,10.20
2022-11-29T16:56:22.664Z,11.27
2022-11-29T16:59:24.985Z,12.75
2022-11-29T17:01:46.104Z,13.70
2022-11-29T17:04:23.388Z,10.98
2022-11-29T17:06:55.256Z,10.13
2022-11-29T17:09:27.310Z,9.57
2022-11-29T17:12:00.013Z,9.52
2022-11-29T17:14:29.775Z,8.67
2022-11-29T17:17:01.020Z,9.20
2022-11-29T17:19:31.304Z,8.82
2022-11-29T17:22:00.736Z,7.35
2022-11-29T17:24:30.082Z,7.28
2022-11-29T17:26:59.637Z,7.80
2022-11-29T17:29:29.144Z,7.60
2022-11-29T17:32:00.099Z,6.28
2022-11-29T17:34:30.209Z,6.85
2022-11-29T17:36:59.563Z,7.10
2022-11-29T17:39:28.999Z,7.27
2022-11-29T17:41:58.369Z,8.50
2022-11-29T17:44:28.494Z,7.03
2022-11-29T17:46:59.284Z,6.68
2022-11-29T17:49:28.748Z,6.93
2022-11-29T17:52:05.415Z,7.80
2022-11-29T17:54:39.557Z,7.60
2022-11-29T17:57:33.222Z,7.35
2022-11-29T18:00:04.465Z,7.95
2022-11-29T18:02:36.439Z,7.95
2022-11-29T18:05:06.614Z,7.33
2022-11-29T18:07:56.050Z,7.10
2022-11-29T18:10:26.031Z,7.75
2022-11-29T18:12:55.663Z,7.80
2022-11-29T18:15:25.660Z,7.25
2022-11-29T18:17:56.586Z,6.73
2022-11-29T18:20:25.956Z,7.25
2022-11-29T18:22:56.435Z,6.88
2022-11-29T18:25:41.123Z,7.03
2022-11-29T18:28:11.491Z,6.93
2022-11-29T18:30:41.048Z,7.17
2022-11-29T18:33:11.753Z,6.88
2022-11-29T18:35:41.103Z,7.13
2022-11-29T18:38:15.558Z,7.65
2022-11-29T18:40:46.014Z,7.72
2022-11-29T18:43:17.797Z,7.60
2022-11-29T18:45:47.273Z,6.95
2022-11-29T18:48:18.170Z,7.45
2022-11-29T18:50:47.513Z,6.75
2022-11-29T18:53:16.916Z,7.15
2022-11-29T18:55:46.204Z,6.37
2022-11-29T18:58:15.581Z,8.40
2022-11-29T19:00:45.073Z,12.57
2022-11-29T19:03:14.992Z,11.95
2022-11-29T19:05:52.992Z,7.50
2022-11-29T19:08:22.328Z,7.93
2022-11-29T19:10:51.626Z,9.35
2022-11-29T19:13:21.035Z,7.75
2022-11-29T19:15:54.067Z,7.25
2022-11-29T19:18:24.148Z,7.22
2022-11-29T19:20:55.104Z,6.93
2022-11-29T19:23:24.502Z,7.07
2022-11-29T19:25:53.863Z,6.47
2022-11-29T19:28:23.246Z,5.80
2022-11-29T19:30:55.627Z,6.25
2022-11-29T19:33:25.165Z,6.37
2022-11-29T19:35:56.207Z,10.02
2022-11-29T19:38:25.615Z,8.85
2022-11-29T19:40:55.091Z,8.45
2022-11-29T19:43:24.472Z,8.63
2022-11-29T19:45:53.827Z,8.40
2022-11-29T19:48:23.244Z,7.05
2022-11-29T19:50:52.576Z,6.82
2022-11-29T19:53:23.315Z,6.47
2022-11-29T19:55:53.203Z,5.55
2022-11-29T19:58:22.621Z,6.13
2022-11-29T20:00:52.238Z,6.10
2022-11-29T20:03:21.606Z,5.97
2022-11-29T20:05:57.494Z,6.60
2022-11-29T20:08:28.667Z,6.13
2022-11-29T20:10:58.066Z,6.07
2022-11-29T20:13:27.365Z,6.07
2022-11-29T20:15:56.755Z,7.05
2022-11-29T20:18:30.855Z,6.30
2022-11-29T20:21:05.241Z,7.45
2022-11-29T20:23:36.776Z,6.17
2022-11-29T20:26:08.227Z,6.50
2022-11-29T20:28:37.757Z,6.20
2022-11-29T20:31:08.020Z,6.68
2022-11-29T20:33:39.613Z,6.75
2022-11-29T20:36:21.778Z,6.63
2022-11-29T20:38:59.543Z,6.72
2022-11-29T20:41:39.283Z,6.63
2022-11-29T20:44:15.259Z,6.60
2022-11-29T20:46:45.020Z,5.97
2022-11-29T20:49:15.466Z,6.63
2022-11-29T20:51:51.811Z,7.18
2022-11-29T20:54:22.750Z,6.47
2022-11-29T20:56:52.077Z,7.03
2022-11-29T20:59:21.469Z,6.65
2022-11-29T21:01:50.866Z,6.37
2022-11-29T21:04:23.595Z,6.00
2022-11-29T21:06:53.296Z,5.88
2022-11-29T21:09:24.064Z,5.38
2022-11-29T21:11:53.844Z,6.70
2022-11-29T21:14:23.983Z,6.37
2022-11-29T21:16:53.915Z,6.32
2022-11-29T21:19:27.522Z,6.20
2022-11-29T21:22:07.254Z,5.82
2022-11-29T21:24:47.904Z,6.90
2022-11-29T21:27:23.792Z,6.67
2022-11-29T21:29:53.665Z,6.28
2022-11-29T21:32:25.412Z,6.60
2022-11-29T21:34:54.938Z,6.28
2022-11-29T21:37:28.289Z,6.10
2022-11-29T21:39:59.478Z,6.00
2022-11-29T21:42:28.735Z,6.32
2022-11-29T21:44:58.037Z,5.53
2022-11-29T21:47:27.435Z,6.35
2022-11-29T21:49:57.723Z,6.93
2022-11-29T21:52:27.228Z,6.63
2022-11-29T21:54:56.574Z,6.38
2022-11-29T21:57:28.995Z,7.05
2022-11-29T21:59:58.325Z,6.97
2022-11-29T22:02:27.773Z,5.80
2022-11-29T22:04:57.153Z,6.17
2022-11-29T22:07:26.501Z,6.45
2022-11-29T22:09:55.854Z,5.72
2022-11-29T22:12:34.380Z,5.70
2022-11-29T22:15:06.446Z,6.07
2022-11-29T22:17:35.753Z,6.10
2022-11-29T22:20:05.395Z,5.72
2022-11-29T22:22:34.775Z,5.88
2022-11-29T22:25:04.072Z,6.55
2022-11-29T22:27:33.340Z,6.43
2022-11-29T22:30:02.758Z,6.17
2022-11-29T22:32:34.562Z,5.45
2022-11-29T22:35:03.939Z,5.45
2022-11-29T22:37:33.385Z,5.97
2022-11-29T22:40:02.951Z,6.97
2022-11-29T22:42:32.373Z,6.27
2022-11-29T22:45:04.245Z,6.07
2022-11-29T22:47:35.239Z,7.32
2022-11-29T22:50:04.702Z,7.45
2022-11-29T22:52:34.014Z,7.13
2022-11-29T22:55:05.289Z,7.20
2022-11-29T22:57:34.696Z,8.00
2022-11-29T23:00:04.356Z,8.10
2022-11-29T23:02:35.126Z,8.40
2022-11-29T23:05:04.455Z,8.77
2022-11-29T23:07:33.765Z,8.00
2022-11-29T23:10:03.245Z,9.32
2022-11-29T23:12:32.835Z,10.02
2022-11-29T23:15:02.972Z,8.35
2022-11-29T23:17:34.348Z,8.32
2022-11-29T23:20:03.676Z,9.43
2022-11-29T23:22:32.942Z,9.13
2022-11-29T23:25:02.189Z,8.40
2022-11-29T23:27:31.475Z,9.23
2022-11-29T23:30:00.834Z,9.55
2022-11-29T23:32:30.314Z,9.20
2022-11-29T23:35:01.023Z,9.00
2022-11-29T23:37:30.447Z,9.20
2022-11-29T23:39:59.754Z,9.18
2022-11-29T23:42:29.260Z,8.95
2022-11-29T23:44:58.615Z,9.70
2022-11-29T23:47:27.875Z,8.77
2022-11-29T23:49:57.196Z,8.93
2022-11-29T23:52:27.925Z,8.52
2022-11-29T23:54:57.163Z,8.82
2022-11-29T23:57:26.446Z,9.33
2022-11-29T23:59:55.670Z,9.15
